Florin, Pennsylvania
Current Conditions -  °F | °C
As of 7:01 AM on Thursday 23 Oct 2014 (Local Time) from KLNS Reporting Station
Overcast Overcast  
Wind Chill: 51°   Ceiling: 2800
Heat Index: 51°   Visibility: 10mi
Dew Point: 42°   Wind: 10mph
Humidity: 71%   Direction: 330°NNW
Pressure: 29.85"   Gusts: NA
Location:  40.1077°N, 76.5054°W
Report Text: KLNS 231101Z 33009KT 10SM BKN028 OVC060 11/06 A2985 RMK AO2 T01060056
Loading
Personal Weather Stations






























Interactive Weather Map
Tropical Storm Tracking
New forecast layout! Learn more

10-Day Weather Forecast

Advertisements
Track Severe Weather on mobile